createdAt,value
2022-08-20T00:00:39.062Z,21.79
2022-08-20T00:04:01.732Z,21.81
2022-08-20T00:07:23.801Z,21.83
2022-08-20T00:10:54.970Z,21.85
2022-08-20T00:14:17.193Z,21.86
2022-08-20T00:17:39.098Z,21.88
2022-08-20T00:21:01.028Z,21.87
2022-08-20T00:24:22.806Z,21.87
2022-08-20T00:27:45.923Z,21.82
2022-08-20T00:31:11.089Z,21.83
2022-08-20T00:34:32.894Z,21.81
2022-08-20T00:37:59.983Z,21.80
2022-08-20T00:41:26.261Z,21.79
2022-08-20T00:44:49.179Z,21.79
2022-08-20T00:48:11.559Z,21.76
2022-08-20T00:51:38.150Z,21.74
2022-08-20T00:55:02.983Z,21.74
2022-08-20T00:58:25.719Z,21.70
2022-08-20T01:01:55.903Z,21.70
2022-08-20T01:05:18.574Z,21.70
2022-08-20T01:08:42.677Z,21.64
2022-08-20T01:12:06.299Z,21.64
2022-08-20T01:15:31.884Z,21.66
2022-08-20T01:18:57.661Z,21.68
2022-08-20T01:22:44.335Z,21.67
2022-08-20T01:26:11.555Z,21.67
2022-08-20T01:29:36.850Z,21.68
2022-08-20T01:32:58.619Z,21.68
2022-08-20T01:36:26.171Z,21.69
2022-08-20T01:39:48.151Z,21.70
2022-08-20T01:43:11.654Z,21.70
2022-08-20T01:46:44.037Z,21.71
2022-08-20T01:50:16.802Z,21.69
2022-08-20T01:53:41.487Z,21.69
2022-08-20T01:57:06.858Z,21.68
2022-08-20T02:00:30.106Z,21.68
2022-08-20T02:03:53.899Z,21.69
2022-08-20T02:07:18.134Z,21.58
2022-08-20T02:10:40.470Z,21.53
2022-08-20T02:14:03.190Z,21.38
2022-08-20T02:17:29.393Z,21.36
2022-08-20T02:20:52.762Z,21.35
2022-08-20T02:24:15.290Z,21.33
2022-08-20T02:27:38.931Z,21.33
2022-08-20T02:31:03.037Z,21.27
2022-08-20T02:34:26.278Z,21.27
2022-08-20T02:37:48.497Z,21.29
2022-08-20T02:41:12.317Z,21.30
2022-08-20T02:44:35.505Z,21.29
2022-08-20T02:47:58.996Z,21.26
2022-08-20T02:51:30.530Z,21.27
2022-08-20T02:54:52.822Z,21.24
2022-08-20T02:58:14.498Z,21.27
2022-08-20T03:01:36.419Z,21.22
2022-08-20T03:04:58.206Z,21.20
2022-08-20T03:08:21.981Z,21.19
2022-08-20T03:11:43.818Z,21.19
2022-08-20T03:15:07.565Z,21.19
2022-08-20T03:18:44.702Z,21.14
2022-08-20T03:22:07.095Z,21.15
2022-08-20T03:25:30.657Z,21.16
2022-08-20T03:28:52.360Z,21.13
2022-08-20T03:32:14.417Z,21.14
2022-08-20T03:35:39.538Z,21.10
2022-08-20T03:39:05.534Z,21.06
2022-08-20T03:42:28.723Z,21.05
2022-08-20T03:45:50.786Z,20.97
2022-08-20T03:49:12.809Z,20.99
2022-08-20T03:52:34.320Z,20.99
2022-08-20T03:56:00.485Z,20.90
2022-08-20T03:59:25.516Z,20.83
2022-08-20T04:02:47.774Z,20.86
2022-08-20T04:06:09.807Z,20.91
2022-08-20T04:09:31.739Z,20.91
2022-08-20T04:12:53.888Z,20.93
2022-08-20T04:16:18.076Z,20.94
2022-08-20T04:19:42.018Z,20.98
2022-08-20T04:23:04.731Z,21.00
2022-08-20T04:26:26.738Z,20.98
2022-08-20T04:29:48.306Z,20.95
2022-08-20T04:33:11.603Z,20.92
2022-08-20T04:36:34.060Z,20.93
2022-08-20T04:40:13.409Z,20.84
2022-08-20T04:43:37.217Z,20.81
2022-08-20T04:46:58.857Z,20.83
2022-08-20T04:50:22.195Z,20.83
2022-08-20T04:53:51.727Z,20.87
2022-08-20T04:57:14.470Z,20.80
2022-08-20T05:00:36.638Z,20.80
2022-08-20T05:03:59.347Z,20.73
2022-08-20T05:07:22.419Z,20.74
2022-08-20T05:10:45.376Z,20.75
2022-08-20T05:14:09.643Z,20.78
2022-08-20T05:17:31.661Z,20.64
2022-08-20T05:20:54.087Z,20.67
2022-08-20T05:24:17.070Z,20.69
2022-08-20T05:27:45.966Z,20.55
2022-08-20T05:31:10.172Z,20.55
2022-08-20T05:34:32.075Z,20.62
2022-08-20T05:37:54.056Z,20.71
2022-08-20T05:41:29.342Z,20.73
2022-08-20T05:44:51.499Z,20.78
2022-08-20T05:48:16.549Z,20.71
2022-08-20T05:51:38.650Z,20.64
2022-08-20T05:55:00.551Z,20.61
2022-08-20T05:58:25.509Z,20.59
2022-08-20T06:01:47.341Z,20.61
2022-08-20T06:05:09.066Z,20.67
2022-08-20T06:08:30.572Z,20.60
2022-08-20T06:11:52.555Z,20.57
2022-08-20T06:15:15.597Z,20.47
2022-08-20T06:18:37.649Z,20.46
2022-08-20T06:21:59.411Z,20.45
2022-08-20T06:25:21.685Z,20.53
2022-08-20T06:28:43.641Z,20.54
2022-08-20T06:32:07.920Z,20.53
2022-08-20T06:35:29.862Z,20.47
2022-08-20T06:38:52.051Z,20.53
2022-08-20T06:42:13.783Z,20.56
2022-08-20T06:45:43.795Z,20.52
2022-08-20T06:49:08.726Z,20.60
2022-08-20T06:52:52.315Z,20.58
2022-08-20T06:56:12.695Z,20.68
2022-08-20T06:59:34.766Z,20.74
2022-08-20T07:02:57.691Z,20.79
2022-08-20T07:06:20.820Z,20.77
2022-08-20T07:09:42.501Z,20.83
2022-08-20T07:13:04.810Z,20.89
2022-08-20T07:16:27.240Z,20.92
2022-08-20T07:19:48.909Z,20.88
2022-08-20T07:23:12.403Z,20.91
2022-08-20T07:26:34.543Z,20.98
2022-08-20T07:30:15.227Z,20.89
2022-08-20T07:33:37.507Z,20.83
2022-08-20T07:37:01.621Z,20.84
2022-08-20T07:40:28.527Z,20.93
2022-08-20T07:43:50.323Z,20.89
2022-08-20T07:47:12.449Z,20.98
2022-08-20T07:50:34.165Z,20.91
2022-08-20T07:53:58.258Z,20.86
2022-08-20T07:57:21.638Z,20.96
2022-08-20T08:00:43.270Z,21.02
2022-08-20T08:04:05.293Z,21.02
2022-08-20T08:07:27.415Z,21.09
2022-08-20T08:10:52.198Z,21.10
2022-08-20T08:14:27.407Z,21.12
2022-08-20T08:17:50.908Z,21.17
2022-08-20T08:21:14.188Z,21.11
2022-08-20T08:24:36.263Z,21.18
2022-08-20T08:28:00.260Z,21.24
2022-08-20T08:31:25.554Z,21.17
2022-08-20T08:34:48.132Z,21.21
2022-08-20T08:38:09.663Z,21.19
2022-08-20T08:41:38.434Z,21.20
2022-08-20T08:45:00.510Z,21.24
2022-08-20T08:48:34.858Z,21.33
2022-08-20T08:52:04.496Z,21.35
2022-08-20T08:55:29.647Z,21.35
2022-08-20T08:58:51.688Z,21.40
2022-08-20T09:02:21.640Z,21.44
2022-08-20T09:05:49.345Z,21.44
2022-08-20T09:09:19.195Z,21.43
2022-08-20T09:12:45.701Z,21.48
2022-08-20T09:16:09.279Z,21.49
2022-08-20T09:19:31.911Z,21.53
2022-08-20T09:22:55.700Z,21.57
2022-08-20T09:26:17.854Z,21.53
2022-08-20T09:29:40.809Z,21.58
2022-08-20T09:33:03.801Z,21.65
2022-08-20T09:36:31.569Z,21.60
2022-08-20T09:39:57.025Z,21.56
2022-08-20T09:43:18.567Z,21.59
2022-08-20T09:46:40.390Z,21.68
2022-08-20T09:50:02.374Z,21.73
2022-08-20T09:53:24.567Z,21.76
2022-08-20T09:56:47.565Z,21.85
2022-08-20T10:00:11.825Z,21.87
2022-08-20T10:03:36.436Z,21.96
2022-08-20T10:07:08.545Z,21.99
2022-08-20T10:10:30.257Z,22.00
2022-08-20T10:13:53.745Z,21.99
2022-08-20T10:17:15.781Z,22.03
2022-08-20T10:20:37.886Z,22.03
2022-08-20T10:24:00.186Z,21.91
2022-08-20T10:27:21.790Z,21.83
2022-08-20T10:30:45.257Z,21.88
2022-08-20T10:34:07.011Z,21.77
2022-08-20T10:37:28.874Z,21.85
2022-08-20T10:40:52.640Z,21.81
2022-08-20T10:44:14.623Z,21.90
2022-08-20T10:47:37.887Z,21.92
2022-08-20T10:50:59.794Z,21.98
2022-08-20T10:54:21.435Z,22.03
2022-08-20T10:57:44.042Z,21.95
2022-08-20T11:01:05.957Z,21.96
2022-08-20T11:04:28.939Z,21.97
2022-08-20T11:07:56.573Z,21.99
2022-08-20T11:11:18.455Z,21.97
2022-08-20T11:14:40.584Z,22.00
2022-08-20T11:18:02.773Z,22.04
2022-08-20T11:21:26.166Z,22.11
2022-08-20T11:24:48.567Z,22.21
2022-08-20T11:28:10.859Z,22.10
2022-08-20T11:31:32.577Z,22.05
2022-08-20T11:34:54.603Z,22.06
2022-08-20T11:38:19.518Z,22.02
2022-08-20T11:41:41.359Z,22.06
2022-08-20T11:45:08.670Z,22.13
2022-08-20T11:48:31.521Z,22.01
2022-08-20T11:51:53.465Z,22.00
2022-08-20T11:55:17.995Z,22.06
2022-08-20T11:58:39.874Z,22.02
2022-08-20T12:02:03.150Z,22.15
2022-08-20T12:05:27.226Z,22.26
2022-08-20T12:08:49.230Z,22.37
2022-08-20T12:12:13.390Z,22.44
2022-08-20T12:15:36.365Z,22.47
2022-08-20T12:18:58.198Z,22.57
2022-08-20T12:22:25.362Z,22.59
2022-08-20T12:25:47.177Z,22.61
2022-08-20T12:29:10.325Z,22.68
2022-08-20T12:32:33.448Z,22.70
2022-08-20T12:35:54.916Z,22.70
2022-08-20T12:39:17.209Z,22.66
2022-08-20T12:42:39.302Z,22.68
2022-08-20T12:46:02.443Z,22.67
2022-08-20T12:49:24.402Z,22.74
2022-08-20T12:52:48.154Z,22.79
2022-08-20T12:56:10.267Z,22.78
2022-08-20T12:59:32.107Z,22.82
2022-08-20T13:02:57.071Z,22.72
2022-08-20T13:06:18.754Z,22.76
2022-08-20T13:09:41.170Z,22.84
2022-08-20T13:13:03.840Z,22.85
2022-08-20T13:16:25.522Z,22.71
2022-08-20T13:19:49.090Z,22.75
2022-08-20T13:23:10.938Z,22.81
2022-08-20T13:26:32.931Z,22.74
2022-08-20T13:29:58.909Z,22.78
2022-08-20T13:33:20.779Z,22.69
2022-08-20T13:36:44.133Z,22.66
2022-08-20T13:40:08.148Z,22.69
2022-08-20T13:43:29.921Z,22.79
2022-08-20T13:46:51.783Z,22.84
2022-08-20T13:50:17.147Z,22.85
2022-08-20T13:53:40.213Z,22.75
2022-08-20T13:57:06.822Z,22.71
2022-08-20T14:00:32.324Z,22.68
2022-08-20T14:03:53.967Z,22.62
2022-08-20T14:07:18.945Z,22.69
2022-08-20T14:10:42.925Z,22.68
2022-08-20T14:14:04.877Z,22.65
2022-08-20T14:17:29.543Z,22.68
2022-08-20T14:20:51.577Z,22.62
2022-08-20T14:24:15.094Z,22.67
2022-08-20T14:27:39.435Z,22.67
2022-08-20T14:31:01.180Z,22.72
2022-08-20T14:34:23.102Z,22.73
2022-08-20T14:37:48.810Z,22.80
2022-08-20T14:41:10.554Z,22.87
2022-08-20T14:44:33.848Z,22.82
2022-08-20T14:47:58.192Z,22.73
2022-08-20T14:51:19.810Z,22.64
2022-08-20T14:54:42.639Z,22.65
2022-08-20T14:58:09.119Z,22.62
2022-08-20T15:01:32.295Z,22.69
2022-08-20T15:04:55.663Z,22.74
2022-08-20T15:08:17.348Z,22.69
2022-08-20T15:11:40.923Z,22.56
2022-08-20T15:15:13.244Z,22.47
2022-08-20T15:18:37.405Z,22.48
2022-08-20T15:21:58.977Z,22.43
2022-08-20T15:25:22.973Z,22.39
2022-08-20T15:28:44.966Z,22.45
2022-08-20T15:32:08.555Z,22.43
2022-08-20T15:35:32.081Z,22.44
2022-08-20T15:38:53.902Z,22.49
2022-08-20T15:42:15.986Z,22.55
2022-08-20T15:45:37.794Z,22.61
2022-08-20T15:48:59.686Z,22.54
2022-08-20T15:52:24.391Z,22.53
2022-08-20T15:55:59.294Z,22.45
2022-08-20T15:59:50.321Z,22.45
2022-08-20T16:03:39.862Z,22.46
2022-08-20T16:07:07.620Z,22.33
2022-08-20T16:10:39.406Z,22.23
2022-08-20T16:14:15.854Z,22.29
2022-08-20T16:17:44.919Z,22.27
2022-08-20T16:21:10.762Z,22.28
2022-08-20T16:24:33.522Z,22.24
2022-08-20T16:28:12.124Z,22.21
2022-08-20T16:31:40.958Z,22.18
2022-08-20T16:35:11.733Z,22.18
2022-08-20T16:38:40.385Z,22.18
2022-08-20T16:42:05.761Z,22.16
2022-08-20T16:45:32.910Z,22.12
2022-08-20T16:48:58.459Z,22.10
2022-08-20T16:52:20.600Z,22.09
2022-08-20T16:55:42.545Z,22.06
2022-08-20T16:59:07.080Z,22.06
2022-08-20T17:02:32.403Z,22.06
2022-08-20T17:05:57.314Z,22.02
2022-08-20T17:09:33.958Z,22.01
2022-08-20T17:12:59.745Z,21.98
2022-08-20T17:16:23.267Z,21.94
2022-08-20T17:19:54.009Z,21.92
2022-08-20T17:23:18.646Z,21.88
2022-08-20T17:26:43.863Z,21.86
2022-08-20T17:30:20.113Z,21.82
2022-08-20T17:33:41.845Z,21.77
2022-08-20T17:37:19.414Z,21.72
2022-08-20T17:40:46.037Z,21.68
2022-08-20T17:44:19.722Z,21.67
2022-08-20T17:47:44.684Z,21.66
2022-08-20T17:51:18.877Z,21.62
2022-08-20T17:54:45.095Z,21.60
2022-08-20T17:58:13.546Z,21.59
2022-08-20T18:01:36.190Z,21.58
2022-08-20T18:04:58.516Z,21.57
2022-08-20T18:08:41.226Z,21.56
2022-08-20T18:12:24.310Z,21.53
2022-08-20T18:15:59.074Z,21.53
2022-08-20T18:19:40.396Z,21.51
2022-08-20T18:23:07.583Z,21.50
2022-08-20T18:26:34.566Z,21.47
2022-08-20T18:30:00.889Z,21.45
2022-08-20T18:33:29.973Z,21.40
2022-08-20T18:36:56.943Z,21.39
2022-08-20T18:40:28.689Z,21.36
2022-08-20T18:43:50.741Z,21.31
2022-08-20T18:47:27.320Z,21.33
2022-08-20T18:50:55.218Z,21.33
2022-08-20T18:54:24.945Z,21.33
2022-08-20T18:57:55.283Z,21.30
2022-08-20T19:01:18.073Z,21.27
2022-08-20T19:04:41.548Z,21.22
2022-08-20T19:08:06.080Z,21.17
2022-08-20T19:11:46.466Z,21.12
2022-08-20T19:15:13.467Z,21.10
2022-08-20T19:18:43.725Z,21.09
2022-08-20T19:22:07.828Z,21.11
2022-08-20T19:25:32.479Z,21.09
2022-08-20T19:28:58.110Z,21.05
2022-08-20T19:32:21.377Z,21.03
2022-08-20T19:35:43.376Z,21.00
2022-08-20T19:39:16.843Z,21.00
2022-08-20T19:42:44.150Z,20.98
2022-08-20T19:46:05.931Z,20.95
2022-08-20T19:49:35.109Z,20.94
2022-08-20T19:53:05.943Z,20.96
2022-08-20T19:56:29.631Z,20.98
2022-08-20T20:00:00.236Z,20.96
2022-08-20T20:03:24.950Z,20.95
2022-08-20T20:06:50.018Z,20.96
2022-08-20T20:10:29.457Z,20.94
2022-08-20T20:13:55.793Z,20.92
2022-08-20T20:17:23.331Z,20.91
2022-08-20T20:20:57.529Z,20.89
2022-08-20T20:24:26.257Z,20.87
2022-08-20T20:27:50.673Z,20.87
2022-08-20T20:31:19.165Z,20.84
2022-08-20T20:34:54.885Z,20.84
2022-08-20T20:38:26.616Z,20.81
2022-08-20T20:41:53.427Z,20.79
2022-08-20T20:45:20.177Z,20.76
2022-08-20T20:48:48.375Z,20.74
2022-08-20T20:52:22.085Z,20.68
2022-08-20T20:55:55.404Z,20.69
2022-08-20T20:59:17.531Z,20.66
2022-08-20T21:02:39.114Z,20.64
2022-08-20T21:06:02.122Z,20.62
2022-08-20T21:09:25.801Z,20.61
2022-08-20T21:12:52.061Z,20.61
2022-08-20T21:16:15.440Z,20.62
2022-08-20T21:19:45.187Z,20.62
2022-08-20T21:23:08.734Z,20.60
2022-08-20T21:26:30.667Z,20.60
2022-08-20T21:29:53.173Z,20.59
2022-08-20T21:33:15.199Z,20.58
2022-08-20T21:36:37.534Z,20.58
2022-08-20T21:40:00.658Z,20.57
2022-08-20T21:43:22.664Z,20.54
2022-08-20T21:46:45.183Z,20.52
2022-08-20T21:50:08.049Z,20.50
2022-08-20T21:53:29.918Z,20.48
2022-08-20T21:56:55.583Z,20.45
2022-08-20T22:00:41.772Z,20.43
2022-08-20T22:04:05.281Z,20.41
2022-08-20T22:07:27.422Z,20.35
2022-08-20T22:10:53.219Z,20.37
2022-08-20T22:14:18.022Z,20.37
2022-08-20T22:17:39.678Z,20.37
2022-08-20T22:21:01.677Z,20.38
2022-08-20T22:24:25.226Z,20.36
2022-08-20T22:27:47.060Z,20.37
2022-08-20T22:31:11.121Z,20.37
2022-08-20T22:34:36.226Z,20.37
2022-08-20T22:37:57.982Z,20.36
2022-08-20T22:41:20.206Z,20.36
2022-08-20T22:44:42.048Z,20.36
2022-08-20T22:48:08.163Z,20.32
2022-08-20T22:51:34.684Z,20.32
2022-08-20T22:54:57.074Z,20.34
2022-08-20T22:58:19.109Z,20.34
2022-08-20T23:01:53.240Z,20.35
2022-08-20T23:05:19.827Z,20.31
2022-08-20T23:08:42.678Z,20.31
2022-08-20T23:12:05.021Z,20.29
2022-08-20T23:15:28.343Z,20.30
2022-08-20T23:18:49.929Z,20.28
2022-08-20T23:22:13.526Z,20.29
2022-08-20T23:25:36.460Z,20.27
2022-08-20T23:28:58.397Z,20.23
2022-08-20T23:32:20.269Z,20.20
2022-08-20T23:35:42.507Z,20.17
2022-08-20T23:39:07.333Z,20.14
2022-08-20T23:42:30.378Z,20.13
2022-08-20T23:45:52.350Z,20.10
2022-08-20T23:49:14.251Z,20.07
2022-08-20T23:52:36.095Z,20.07
2022-08-20T23:55:59.242Z,20.07
2022-08-20T23:59:21.523Z,20.07
